sensor_id;sensor_type;location;lat;lon;timestamp;pressure;altitude;pressure_sealevel;temperature;humidity
16094;BME280;8151;47.824;12.092;2023-08-07T00:01:00;96031.44;;;13.79;68.41
16094;BME280;8151;47.824;12.092;2023-08-07T00:03:28;96040.63;;;13.76;68.50
16094;BME280;8151;47.824;12.092;2023-08-07T00:05:57;96032.66;;;13.76;68.28
16094;BME280;8151;47.824;12.092;2023-08-07T00:08:25;96037.97;;;13.76;68.46
16094;BME280;8151;47.824;12.092;2023-08-07T00:11:04;96036.31;;;13.75;68.10
16094;BME280;8151;47.824;12.092;2023-08-07T00:13:34;96035.50;;;13.75;68.33
16094;BME280;8151;47.824;12.092;2023-08-07T00:16:03;96052.28;;;13.75;68.04
16094;BME280;8151;47.824;12.092;2023-08-07T00:18:31;96048.81;;;13.75;67.96
16094;BME280;8151;47.824;12.092;2023-08-07T00:21:00;96053.88;;;13.70;67.95
16094;BME280;8151;47.824;12.092;2023-08-07T00:23:28;96038.13;;;13.68;68.26
16094;BME280;8151;47.824;12.092;2023-08-07T00:25:56;96049.59;;;13.69;68.06
16094;BME280;8151;47.824;12.092;2023-08-07T00:28:25;96056.72;;;13.68;68.23
16094;BME280;8151;47.824;12.092;2023-08-07T00:30:55;96057.94;;;13.66;68.25
16094;BME280;8151;47.824;12.092;2023-08-07T00:33:23;96057.94;;;13.66;68.29
16094;BME280;8151;47.824;12.092;2023-08-07T00:35:52;96048.91;;;13.60;68.64
16094;BME280;8151;47.824;12.092;2023-08-07T00:38:20;96055.81;;;13.54;68.76
16094;BME280;8151;47.824;12.092;2023-08-07T00:40:48;96050.47;;;13.48;68.92
16094;BME280;8151;47.824;12.092;2023-08-07T00:43:17;96049.78;;;13.39;69.33
16094;BME280;8151;47.824;12.092;2023-08-07T00:45:46;96055.06;;;13.32;69.60
16094;BME280;8151;47.824;12.092;2023-08-07T00:48:17;96057.00;;;13.24;70.08
16094;BME280;8151;47.824;12.092;2023-08-07T00:50:46;96051.81;;;13.15;70.44
16094;BME280;8151;47.824;12.092;2023-08-07T00:53:15;96056.47;;;13.07;70.74
16094;BME280;8151;47.824;12.092;2023-08-07T00:55:45;96054.56;;;13.00;70.71
16094;BME280;8151;47.824;12.092;2023-08-07T00:58:14;96054.69;;;12.92;71.07
16094;BME280;8151;47.824;12.092;2023-08-07T01:00:42;96063.47;;;12.93;70.96
16094;BME280;8151;47.824;12.092;2023-08-07T01:03:12;96056.53;;;12.92;70.99
16094;BME280;8151;47.824;12.092;2023-08-07T01:05:43;96049.56;;;12.91;70.92
16094;BME280;8151;47.824;12.092;2023-08-07T01:08:12;96042.22;;;12.93;70.71
16094;BME280;8151;47.824;12.092;2023-08-07T01:10:48;96058.56;;;12.90;70.72
16094;BME280;8151;47.824;12.092;2023-08-07T01:13:24;96064.41;;;12.85;70.83
16094;BME280;8151;47.824;12.092;2023-08-07T01:15:57;96067.91;;;12.86;70.85
16094;BME280;8151;47.824;12.092;2023-08-07T01:18:29;96055.81;;;12.83;70.81
16094;BME280;8151;47.824;12.092;2023-08-07T01:21:00;96070.94;;;12.83;71.03
16094;BME280;8151;47.824;12.092;2023-08-07T01:23:30;96065.56;;;12.76;71.26
16094;BME280;8151;47.824;12.092;2023-08-07T01:25:58;96062.84;;;12.69;71.54
16094;BME280;8151;47.824;12.092;2023-08-07T01:28:31;96075.47;;;12.67;71.79
16094;BME280;8151;47.824;12.092;2023-08-07T01:31:05;96070.56;;;12.64;72.27
16094;BME280;8151;47.824;12.092;2023-08-07T01:33:42;96071.75;;;12.61;72.34
16094;BME280;8151;47.824;12.092;2023-08-07T01:36:11;96080.91;;;12.59;72.50
16094;BME280;8151;47.824;12.092;2023-08-07T01:38:47;96072.94;;;12.59;72.55
16094;BME280;8151;47.824;12.092;2023-08-07T01:41:17;96067.19;;;12.55;72.88
16094;BME280;8151;47.824;12.092;2023-08-07T01:43:45;96059.22;;;12.55;72.80
16094;BME280;8151;47.824;12.092;2023-08-07T01:46:14;96071.28;;;12.58;72.90
16094;BME280;8151;47.824;12.092;2023-08-07T01:48:42;96067.19;;;12.55;73.04
16094;BME280;8151;47.824;12.092;2023-08-07T01:51:11;96073.25;;;12.49;73.26
16094;BME280;8151;47.824;12.092;2023-08-07T01:53:39;96065.41;;;12.41;73.42
16094;BME280;8151;47.824;12.092;2023-08-07T01:56:09;96073.28;;;12.34;73.93
16094;BME280;8151;47.824;12.092;2023-08-07T01:58:38;96071.66;;;12.33;73.98
16094;BME280;8151;47.824;12.092;2023-08-07T02:01:06;96074.31;;;12.33;74.13
16094;BME280;8151;47.824;12.092;2023-08-07T02:03:35;96074.22;;;12.27;74.52
16094;BME280;8151;47.824;12.092;2023-08-07T02:06:04;96075.97;;;12.19;74.73
16094;BME280;8151;47.824;12.092;2023-08-07T02:08:32;96076.34;;;12.16;75.21
16094;BME280;8151;47.824;12.092;2023-08-07T02:11:00;96066.09;;;12.13;75.44
16094;BME280;8151;47.824;12.092;2023-08-07T02:13:31;96079.72;;;12.10;75.55
16094;BME280;8151;47.824;12.092;2023-08-07T02:16:10;96079.09;;;12.08;75.73
16094;BME280;8151;47.824;12.092;2023-08-07T02:18:38;96079.09;;;12.08;75.79
16094;BME280;8151;47.824;12.092;2023-08-07T02:21:07;96073.16;;;12.06;75.99
16094;BME280;8151;47.824;12.092;2023-08-07T02:23:35;96078.81;;;12.03;76.23
16094;BME280;8151;47.824;12.092;2023-08-07T02:26:04;96074.34;;;12.04;76.42
16094;BME280;8151;47.824;12.092;2023-08-07T02:28:33;96078.63;;;12.05;76.37
16094;BME280;8151;47.824;12.092;2023-08-07T02:31:02;96084.13;;;12.03;76.44
16094;BME280;8151;47.824;12.092;2023-08-07T02:33:30;96074.53;;;12.02;76.63
16094;BME280;8151;47.824;12.092;2023-08-07T02:35:59;96082.84;;;11.99;76.50
16094;BME280;8151;47.824;12.092;2023-08-07T02:38:28;96081.66;;;12.01;76.47
16094;BME280;8151;47.824;12.092;2023-08-07T02:41:01;96084.31;;;12.01;76.59
16094;BME280;8151;47.824;12.092;2023-08-07T02:43:30;96087.97;;;12.00;76.90
16094;BME280;8151;47.824;12.092;2023-08-07T02:46:02;96082.66;;;12.00;76.85
16094;BME280;8151;47.824;12.092;2023-08-07T02:48:31;96086.13;;;12.01;76.66
16094;BME280;8151;47.824;12.092;2023-08-07T02:50:59;96085.50;;;11.99;76.84
16094;BME280;8151;47.824;12.092;2023-08-07T02:53:28;96084.69;;;11.98;76.94
16094;BME280;8151;47.824;12.092;2023-08-07T02:55:56;96086.06;;;11.94;77.05
16094;BME280;8151;47.824;12.092;2023-08-07T02:58:24;96091.72;;;11.91;77.23
16094;BME280;8151;47.824;12.092;2023-08-07T03:00:53;96092.88;;;11.89;77.27
16094;BME280;8151;47.824;12.092;2023-08-07T03:03:23;96066.72;;;11.86;77.36
16094;BME280;8151;47.824;12.092;2023-08-07T03:05:52;96081.00;;;11.85;77.50
16094;BME280;8151;47.824;12.092;2023-08-07T03:08:20;96089.59;;;11.87;77.22
16094;BME280;8151;47.824;12.092;2023-08-07T03:10:52;96085.78;;;11.89;77.45
16094;BME280;8151;47.824;12.092;2023-08-07T03:13:20;96083.59;;;11.93;77.20
16094;BME280;8151;47.824;12.092;2023-08-07T03:15:49;96082.38;;;11.95;77.33
16094;BME280;8151;47.824;12.092;2023-08-07T03:18:18;96089.81;;;12.00;77.17
16094;BME280;8151;47.824;12.092;2023-08-07T03:20:47;96083.31;;;12.02;77.14
16094;BME280;8151;47.824;12.092;2023-08-07T03:23:16;96092.06;;;12.03;77.29
16094;BME280;8151;47.824;12.092;2023-08-07T03:25:44;96103.31;;;12.05;77.10
16094;BME280;8151;47.824;12.092;2023-08-07T03:28:13;96097.84;;;12.07;77.14
16094;BME280;8151;47.824;12.092;2023-08-07T03:30:41;96105.06;;;12.13;77.09
16094;BME280;8151;47.824;12.092;2023-08-07T03:33:11;96102.03;;;12.16;76.71
16094;BME280;8151;47.824;12.092;2023-08-07T03:35:51;96108.00;;;12.18;76.85
16094;BME280;8151;47.824;12.092;2023-08-07T03:38:19;96110.25;;;12.21;76.74
16094;BME280;8151;47.824;12.092;2023-08-07T03:40:48;96120.50;;;12.24;76.54
16094;BME280;8151;47.824;12.092;2023-08-07T03:43:16;96119.88;;;12.22;76.57
16094;BME280;8151;47.824;12.092;2023-08-07T03:45:45;96112.19;;;12.27;76.27
16094;BME280;8151;47.824;12.092;2023-08-07T03:48:13;96117.13;;;12.30;76.33
16094;BME280;8151;47.824;12.092;2023-08-07T03:50:42;96122.41;;;12.30;76.27
16094;BME280;8151;47.824;12.092;2023-08-07T03:53:12;96106.97;;;12.34;76.13
16094;BME280;8151;47.824;12.092;2023-08-07T03:55:40;96119.22;;;12.35;76.06
16094;BME280;8151;47.824;12.092;2023-08-07T03:58:09;96125.97;;;12.37;76.05
16094;BME280;8151;47.824;12.092;2023-08-07T04:00:37;96133.56;;;12.40;75.87
16094;BME280;8151;47.824;12.092;2023-08-07T04:03:06;96110.31;;;12.43;75.82
16094;BME280;8151;47.824;12.092;2023-08-07T04:05:34;96119.94;;;12.44;75.69
16094;BME280;8151;47.824;12.092;2023-08-07T04:08:03;96125.88;;;12.46;75.63
16094;BME280;8151;47.824;12.092;2023-08-07T04:10:33;96121.59;;;12.45;75.61
16094;BME280;8151;47.824;12.092;2023-08-07T04:13:01;96139.31;;;12.44;75.66
16094;BME280;8151;47.824;12.092;2023-08-07T04:15:30;96132.00;;;12.46;75.69
16094;BME280;8151;47.824;12.092;2023-08-07T04:17:58;96135.50;;;12.47;75.57
16094;BME280;8151;47.824;12.092;2023-08-07T04:20:27;96145.09;;;12.48;75.69
16094;BME280;8151;47.824;12.092;2023-08-07T04:22:55;96133.47;;;12.49;75.59
16094;BME280;8151;47.824;12.092;2023-08-07T04:25:24;96143.88;;;12.50;75.68
16094;BME280;8151;47.824;12.092;2023-08-07T04:27:53;96143.88;;;12.50;75.77
16094;BME280;8151;47.824;12.092;2023-08-07T04:30:22;96141.44;;;12.49;75.92
16094;BME280;8151;47.824;12.092;2023-08-07T04:32:50;96136.75;;;12.51;75.99
16094;BME280;8151;47.824;12.092;2023-08-07T04:35:19;96138.38;;;12.52;75.95
16094;BME280;8151;47.824;12.092;2023-08-07T04:37:47;96151.66;;;12.52;76.07
16094;BME280;8151;47.824;12.092;2023-08-07T04:40:15;96155.34;;;12.51;75.90
16094;BME280;8151;47.824;12.092;2023-08-07T04:42:44;96150.03;;;12.51;76.02
16094;BME280;8151;47.824;12.092;2023-08-07T04:45:14;96157.59;;;12.54;76.26
16094;BME280;8151;47.824;12.092;2023-08-07T04:47:42;96157.41;;;12.55;76.08
16094;BME280;8151;47.824;12.092;2023-08-07T04:50:10;96155.41;;;12.57;76.06
16094;BME280;8151;47.824;12.092;2023-08-07T04:52:39;96166.84;;;12.58;76.00
16094;BME280;8151;47.824;12.092;2023-08-07T04:55:08;96161.00;;;12.63;75.93
16094;BME280;8151;47.824;12.092;2023-08-07T04:57:36;96159.97;;;12.64;76.03
16094;BME280;8151;47.824;12.092;2023-08-07T05:00:06;96167.75;;;12.65;75.92
16094;BME280;8151;47.824;12.092;2023-08-07T05:02:36;96157.75;;;12.67;75.88
16094;BME280;8151;47.824;12.092;2023-08-07T05:05:06;96164.34;;;12.71;75.86
16094;BME280;8151;47.824;12.092;2023-08-07T05:07:35;96169.13;;;12.76;75.54
16094;BME280;8151;47.824;12.092;2023-08-07T05:10:04;96161.78;;;12.78;75.59
16094;BME280;8151;47.824;12.092;2023-08-07T05:12:32;96170.56;;;12.78;75.69
16094;BME280;8151;47.824;12.092;2023-08-07T05:15:01;96153.63;;;12.79;75.82
16094;BME280;8151;47.824;12.092;2023-08-07T05:17:30;96172.22;;;12.79;75.85
16094;BME280;8151;47.824;12.092;2023-08-07T05:20:00;96165.53;;;12.84;75.76
16094;BME280;8151;47.824;12.092;2023-08-07T05:22:29;96176.78;;;12.86;75.62
16094;BME280;8151;47.824;12.092;2023-08-07T05:24:57;96171.28;;;12.87;75.66
16094;BME280;8151;47.824;12.092;2023-08-07T05:27:26;96181.91;;;12.87;75.47
16094;BME280;8151;47.824;12.092;2023-08-07T05:29:54;96170.44;;;12.87;75.31
16094;BME280;8151;47.824;12.092;2023-08-07T05:32:23;96185.00;;;12.91;75.22
16094;BME280;8151;47.824;12.092;2023-08-07T05:34:51;96178.50;;;12.93;75.04
16094;BME280;8151;47.824;12.092;2023-08-07T05:37:21;96176.28;;;12.97;74.93
16094;BME280;8151;47.824;12.092;2023-08-07T05:39:50;96194.69;;;12.98;75.04
16094;BME280;8151;47.824;12.092;2023-08-07T05:42:18;96174.06;;;13.00;74.94
16094;BME280;8151;47.824;12.092;2023-08-07T05:44:47;96186.97;;;13.04;74.75
16094;BME280;8151;47.824;12.092;2023-08-07T05:47:15;96208.84;;;13.06;74.58
16094;BME280;8151;47.824;12.092;2023-08-07T05:49:44;96203.56;;;13.06;74.27
16094;BME280;8151;47.824;12.092;2023-08-07T05:52:13;96207.47;;;13.10;74.12
16094;BME280;8151;47.824;12.092;2023-08-07T05:54:44;96195.00;;;13.10;74.11
16094;BME280;8151;47.824;12.092;2023-08-07T05:57:12;96221.78;;;13.09;73.83
16094;BME280;8151;47.824;12.092;2023-08-07T05:59:41;96223.59;;;13.08;73.77
16094;BME280;8151;47.824;12.092;2023-08-07T06:02:09;96220.31;;;13.06;73.59
16094;BME280;8151;47.824;12.092;2023-08-07T06:04:39;96212.97;;;13.08;73.33
16094;BME280;8151;47.824;12.092;2023-08-07T06:07:08;96211.34;;;13.07;73.31
16094;BME280;8151;47.824;12.092;2023-08-07T06:09:36;96222.59;;;13.09;73.01
16094;BME280;8151;47.824;12.092;2023-08-07T06:12:07;96221.19;;;13.13;72.76
16094;BME280;8151;47.824;12.092;2023-08-07T06:14:37;96221.03;;;13.15;72.99
16094;BME280;8151;47.824;12.092;2023-08-07T06:17:05;96221.19;;;13.13;72.67
16094;BME280;8151;47.824;12.092;2023-08-07T06:19:34;96235.13;;;13.15;72.74
16094;BME280;8151;47.824;12.092;2023-08-07T06:22:02;96234.31;;;13.15;72.71
16094;BME280;8151;47.824;12.092;2023-08-07T06:24:31;96241.06;;;13.17;72.60
16094;BME280;8151;47.824;12.092;2023-08-07T06:26:59;96239.69;;;13.22;72.36
16094;BME280;8151;47.824;12.092;2023-08-07T06:29:29;96236.66;;;13.25;72.33
16094;BME280;8151;47.824;12.092;2023-08-07T06:31:57;96247.75;;;13.28;72.12
16094;BME280;8151;47.824;12.092;2023-08-07T06:34:26;96246.56;;;13.31;72.24
16094;BME280;8151;47.824;12.092;2023-08-07T06:36:55;96244.72;;;13.31;71.88
16094;BME280;8151;47.824;12.092;2023-08-07T06:39:24;96246.72;;;13.29;71.78
16094;BME280;8151;47.824;12.092;2023-08-07T06:41:52;96241.06;;;13.32;71.78
16094;BME280;8151;47.824;12.092;2023-08-07T06:44:21;96251.69;;;13.32;71.49
16094;BME280;8151;47.824;12.092;2023-08-07T06:46:51;96240.25;;;13.32;71.48
16094;BME280;8151;47.824;12.092;2023-08-07T06:49:19;96255.97;;;13.33;71.37
16094;BME280;8151;47.824;12.092;2023-08-07T06:51:57;96255.63;;;13.36;70.93
16094;BME280;8151;47.824;12.092;2023-08-07T06:54:26;96261.75;;;13.37;70.62
16094;BME280;8151;47.824;12.092;2023-08-07T06:56:54;96256.44;;;13.37;70.90
16094;BME280;8151;47.824;12.092;2023-08-07T06:59:23;96257.88;;;13.39;70.41
16094;BME280;8151;47.824;12.092;2023-08-07T07:01:53;96261.84;;;13.44;70.44
16094;BME280;8151;47.824;12.092;2023-08-07T07:04:22;96258.59;;;13.48;70.29
16094;BME280;8151;47.824;12.092;2023-08-07T07:06:50;96251.88;;;13.52;69.85
16094;BME280;8151;47.824;12.092;2023-08-07T07:09:19;96257.66;;;13.56;69.61
16094;BME280;8151;47.824;12.092;2023-08-07T07:11:47;96253.41;;;13.62;69.56
16094;BME280;8151;47.824;12.092;2023-08-07T07:14:15;96259.63;;;13.69;69.14
16094;BME280;8151;47.824;12.092;2023-08-07T07:16:44;96256.22;;;13.75;69.35
16094;BME280;8151;47.824;12.092;2023-08-07T07:19:14;96258.09;;;13.81;68.90
16094;BME280;8151;47.824;12.092;2023-08-07T07:21:43;96275.75;;;13.89;68.98
16094;BME280;8151;47.824;12.092;2023-08-07T07:24:12;96265.16;;;13.95;68.93
16094;BME280;8151;47.824;12.092;2023-08-07T07:26:40;96259.09;;;14.02;68.39
16094;BME280;8151;47.824;12.092;2023-08-07T07:29:09;96269.59;;;14.10;68.37
16094;BME280;8151;47.824;12.092;2023-08-07T07:31:37;96269.63;;;14.16;68.41
16094;BME280;8151;47.824;12.092;2023-08-07T07:34:06;96262.91;;;14.21;67.85
16094;BME280;8151;47.824;12.092;2023-08-07T07:36:36;96274.19;;;14.23;67.85
16094;BME280;8151;47.824;12.092;2023-08-07T07:39:04;96270.31;;;14.25;67.87
16094;BME280;8151;47.824;12.092;2023-08-07T07:41:33;96271.97;;;14.26;67.41
16094;BME280;8151;47.824;12.092;2023-08-07T07:44:02;96271.75;;;14.28;67.61
16094;BME280;8151;47.824;12.092;2023-08-07T07:46:30;96284.88;;;14.29;67.21
16094;BME280;8151;47.824;12.092;2023-08-07T07:48:59;96287.16;;;14.32;67.06
16094;BME280;8151;47.824;12.092;2023-08-07T07:51:30;96291.09;;;14.36;66.98
16094;BME280;8151;47.824;12.092;2023-08-07T07:54:01;96293.16;;;14.41;66.57
16094;BME280;8151;47.824;12.092;2023-08-07T07:56:41;96286.00;;;14.42;66.47
16094;BME280;8151;47.824;12.092;2023-08-07T07:59:10;96294.78;;;14.42;66.43
16094;BME280;8151;47.824;12.092;2023-08-07T08:01:39;96308.34;;;14.47;66.44
16094;BME280;8151;47.824;12.092;2023-08-07T08:04:08;96292.63;;;14.52;65.90
16094;BME280;8151;47.824;12.092;2023-08-07T08:06:39;96292.31;;;14.62;65.75
16094;BME280;8151;47.824;12.092;2023-08-07T08:09:09;96297.94;;;14.81;65.69
16094;BME280;8151;47.824;12.092;2023-08-07T08:11:37;96301.09;;;14.91;65.22
16094;BME280;8151;47.824;12.092;2023-08-07T08:14:06;96297.22;;;15.00;65.06
16094;BME280;8151;47.824;12.092;2023-08-07T08:16:34;96309.78;;;15.06;65.11
16094;BME280;8151;47.824;12.092;2023-08-07T08:19:03;96304.84;;;15.10;64.96
16094;BME280;8151;47.824;12.092;2023-08-07T08:21:31;96301.56;;;15.08;64.39
16094;BME280;8151;47.824;12.092;2023-08-07T08:24:00;96306.25;;;15.06;64.24
16094;BME280;8151;47.824;12.092;2023-08-07T08:26:29;96294.97;;;15.04;64.06
16094;BME280;8151;47.824;12.092;2023-08-07T08:28:58;96306.88;;;15.08;64.28
16094;BME280;8151;47.824;12.092;2023-08-07T08:31:26;96311.41;;;15.14;64.44
16094;BME280;8151;47.824;12.092;2023-08-07T08:33:55;96310.84;;;15.19;64.15
16094;BME280;8151;47.824;12.092;2023-08-07T08:36:24;96317.59;;;15.21;64.06
16094;BME280;8151;47.824;12.092;2023-08-07T08:38:53;96316.00;;;15.27;63.72
16094;BME280;8151;47.824;12.092;2023-08-07T08:41:22;96317.25;;;15.31;63.94
16094;BME280;8151;47.824;12.092;2023-08-07T08:43:54;96312.16;;;15.36;63.86
16094;BME280;8151;47.824;12.092;2023-08-07T08:46:24;96315.84;;;15.42;63.77
16094;BME280;8151;47.824;12.092;2023-08-07T08:48:57;96324.88;;;15.41;63.48
16094;BME280;8151;47.824;12.092;2023-08-07T08:51:26;96329.38;;;15.40;63.31
16094;BME280;8151;47.824;12.092;2023-08-07T08:53:55;96316.06;;;15.47;63.35
16094;BME280;8151;47.824;12.092;2023-08-07T08:56:24;96327.38;;;15.55;62.99
16094;BME280;8151;47.824;12.092;2023-08-07T08:58:54;96326.59;;;15.62;62.84
16094;BME280;8151;47.824;12.092;2023-08-07T09:01:22;96320.44;;;15.68;62.20
16094;BME280;8151;47.824;12.092;2023-08-07T09:03:53;96316.56;;;15.70;62.00
16094;BME280;8151;47.824;12.092;2023-08-07T09:06:22;96321.28;;;15.68;61.98
16094;BME280;8151;47.824;12.092;2023-08-07T09:08:52;96314.91;;;15.63;61.68
16094;BME280;8151;47.824;12.092;2023-08-07T09:11:21;96335.63;;;15.61;61.79
16094;BME280;8151;47.824;12.092;2023-08-07T09:13:50;96334.34;;;15.56;61.77
16094;BME280;8151;47.824;12.092;2023-08-07T09:16:21;96328.19;;;15.56;62.01
16094;BME280;8151;47.824;12.092;2023-08-07T09:18:52;96330.88;;;15.56;62.07
16094;BME280;8151;47.824;12.092;2023-08-07T09:21:32;96335.00;;;15.59;62.39
16094;BME280;8151;47.824;12.092;2023-08-07T09:24:01;96335.63;;;15.61;62.10
16094;BME280;8151;47.824;12.092;2023-08-07T09:26:31;96331.72;;;15.63;62.22
16094;BME280;8151;47.824;12.092;2023-08-07T09:29:01;96336.81;;;15.58;62.14
16094;BME280;8151;47.824;12.092;2023-08-07T09:31:31;96331.88;;;15.48;62.74
16094;BME280;8151;47.824;12.092;2023-08-07T09:34:03;96328.38;;;15.41;62.44
16094;BME280;8151;47.824;12.092;2023-08-07T09:36:33;96336.38;;;15.41;62.70
16094;BME280;8151;47.824;12.092;2023-08-07T09:39:02;96333.28;;;15.44;62.38
16094;BME280;8151;47.824;12.092;2023-08-07T09:41:31;96341.91;;;15.46;62.07
16094;BME280;8151;47.824;12.092;2023-08-07T09:44:06;96328.59;;;15.46;61.98
16094;BME280;8151;47.824;12.092;2023-08-07T09:46:42;96327.16;;;15.44;62.05
16094;BME280;8151;47.824;12.092;2023-08-07T09:49:11;96336.38;;;15.41;61.92
16094;BME280;8151;47.824;12.092;2023-08-07T09:51:42;96341.28;;;15.38;62.25
16094;BME280;8151;47.824;12.092;2023-08-07T09:54:11;96347.81;;;15.35;62.15
16094;BME280;8151;47.824;12.092;2023-08-07T09:56:40;96338.19;;;15.34;62.29
16094;BME280;8151;47.824;12.092;2023-08-07T09:59:09;96351.50;;;15.34;62.19
16094;BME280;8151;47.824;12.092;2023-08-07T10:01:37;96353.38;;;15.33;62.26
16094;BME280;8151;47.824;12.092;2023-08-07T10:04:08;96359.50;;;15.34;62.25
16094;BME280;8151;47.824;12.092;2023-08-07T10:06:42;96371.81;;;15.35;62.31
16094;BME280;8151;47.824;12.092;2023-08-07T10:09:10;96364.22;;;15.32;62.35
16094;BME280;8151;47.824;12.092;2023-08-07T10:11:39;96348.44;;;15.37;62.36
16094;BME280;8151;47.824;12.092;2023-08-07T10:14:08;96354.25;;;15.47;62.22
16094;BME280;8151;47.824;12.092;2023-08-07T10:16:37;96357.16;;;15.59;62.14
16094;BME280;8151;47.824;12.092;2023-08-07T10:19:13;96356.53;;;15.64;62.30
16094;BME280;8151;47.824;12.092;2023-08-07T10:21:42;96357.78;;;15.61;62.46
16094;BME280;8151;47.824;12.092;2023-08-07T10:24:12;96355.88;;;15.48;62.43
16094;BME280;8151;47.824;12.092;2023-08-07T10:26:44;96350.53;;;15.42;62.29
16094;BME280;8151;47.824;12.092;2023-08-07T10:29:17;96360.13;;;15.36;62.38
16094;BME280;8151;47.824;12.092;2023-08-07T10:31:47;96367.31;;;15.35;62.27
16094;BME280;8151;47.824;12.092;2023-08-07T10:34:18;96370.56;;;15.31;61.94
16094;BME280;8151;47.824;12.092;2023-08-07T10:36:47;96369.94;;;15.29;61.97
16094;BME280;8151;47.824;12.092;2023-08-07T10:39:15;96378.13;;;15.27;61.94
16094;BME280;8151;47.824;12.092;2023-08-07T10:41:45;96381.22;;;15.31;62.29
16094;BME280;8151;47.824;12.092;2023-08-07T10:44:18;96383.25;;;15.29;62.30
16094;BME280;8151;47.824;12.092;2023-08-07T10:46:48;96371.53;;;15.23;62.76
16094;BME280;8151;47.824;12.092;2023-08-07T10:49:35;96374.41;;;15.22;62.86
16094;BME280;8151;47.824;12.092;2023-08-07T10:52:07;96362.50;;;15.18;62.92
16094;BME280;8151;47.824;12.092;2023-08-07T10:54:37;96354.91;;;15.14;62.82
16094;BME280;8151;47.824;12.092;2023-08-07T10:57:10;96361.88;;;15.15;63.39
16094;BME280;8151;47.824;12.092;2023-08-07T10:59:44;96356.97;;;15.19;63.29
16094;BME280;8151;47.824;12.092;2023-08-07T11:02:23;96362.72;;;15.23;63.37
16094;BME280;8151;47.824;12.092;2023-08-07T11:04:53;96364.38;;;15.24;63.38
16094;BME280;8151;47.824;12.092;2023-08-07T11:07:26;96358.66;;;15.27;63.49
16094;BME280;8151;47.824;12.092;2023-08-07T11:09:56;96353.75;;;15.37;63.85
16094;BME280;8151;47.824;12.092;2023-08-07T11:12:25;96358.94;;;15.45;63.65
16094;BME280;8151;47.824;12.092;2023-08-07T11:14:54;96357.94;;;15.53;63.62
16094;BME280;8151;47.824;12.092;2023-08-07T11:17:24;96348.97;;;15.61;63.74
16094;BME280;8151;47.824;12.092;2023-08-07T11:19:55;96340.16;;;15.67;63.54
16094;BME280;8151;47.824;12.092;2023-08-07T11:22:23;96337.56;;;15.80;63.74
16094;BME280;8151;47.824;12.092;2023-08-07T11:24:52;96326.25;;;15.91;63.01
16094;BME280;8151;47.824;12.092;2023-08-07T11:27:21;96310.91;;;16.00;63.20
16094;BME280;8151;47.824;12.092;2023-08-07T11:29:50;96306.81;;;16.18;63.43
16094;BME280;8151;47.824;12.092;2023-08-07T11:32:21;96299.22;;;16.34;63.34
16094;BME280;8151;47.824;12.092;2023-08-07T11:34:50;96312.56;;;16.48;63.37
16094;BME280;8151;47.824;12.092;2023-08-07T11:37:20;96308.84;;;16.56;63.29
16094;BME280;8151;47.824;12.092;2023-08-07T11:39:48;96314.59;;;16.52;63.44
16094;BME280;8151;47.824;12.092;2023-08-07T11:42:17;96312.53;;;16.41;63.90
16094;BME280;8151;47.824;12.092;2023-08-07T11:44:45;96314.63;;;16.32;63.77
16094;BME280;8151;47.824;12.092;2023-08-07T11:47:15;96327.53;;;16.16;64.04
16094;BME280;8151;47.824;12.092;2023-08-07T11:49:45;96344.94;;;15.91;64.85
16094;BME280;8151;47.824;12.092;2023-08-07T11:52:14;96355.53;;;15.65;65.55
16094;BME280;8151;47.824;12.092;2023-08-07T11:54:47;96361.00;;;15.43;66.65
16094;BME280;8151;47.824;12.092;2023-08-07T11:57:17;96368.50;;;15.33;67.12
16094;BME280;8151;47.824;12.092;2023-08-07T11:59:50;96369.13;;;15.28;67.22
16094;BME280;8151;47.824;12.092;2023-08-07T12:02:22;96374.25;;;15.30;66.74
16094;BME280;8151;47.824;12.092;2023-08-07T12:04:57;96361.75;;;15.37;66.60
16094;BME280;8151;47.824;12.092;2023-08-07T12:07:25;96369.00;;;15.56;65.95
16094;BME280;8151;47.824;12.092;2023-08-07T12:10:09;96362.19;;;15.82;65.21
16094;BME280;8151;47.824;12.092;2023-08-07T12:12:38;96365.50;;;16.11;64.39
16094;BME280;8151;47.824;12.092;2023-08-07T12:15:08;96349.31;;;16.39;63.46
16094;BME280;8151;47.824;12.092;2023-08-07T12:17:40;96358.16;;;16.73;62.84
16094;BME280;8151;47.824;12.092;2023-08-07T12:20:09;96370.88;;;16.98;62.83
16094;BME280;8151;47.824;12.092;2023-08-07T12:22:38;96364.66;;;17.24;62.46
16094;BME280;8151;47.824;12.092;2023-08-07T12:25:08;96379.00;;;17.36;61.89
16094;BME280;8151;47.824;12.092;2023-08-07T12:27:38;96370.78;;;17.38;61.87
16094;BME280;8151;47.824;12.092;2023-08-07T12:30:07;96365.41;;;17.44;61.78
16094;BME280;8151;47.824;12.092;2023-08-07T12:32:36;96364.34;;;17.59;61.60
16094;BME280;8151;47.824;12.092;2023-08-07T12:35:05;96348.44;;;17.64;60.86
16094;BME280;8151;47.824;12.092;2023-08-07T12:37:38;96354.19;;;17.67;59.94
16094;BME280;8151;47.824;12.092;2023-08-07T12:40:09;96347.78;;;17.75;59.50
16094;BME280;8151;47.824;12.092;2023-08-07T12:42:41;96350.22;;;17.90;59.31
16094;BME280;8151;47.824;12.092;2023-08-07T12:45:09;96352.72;;;18.17;58.51
16094;BME280;8151;47.824;12.092;2023-08-07T12:47:44;96357.59;;;18.26;58.16
16094;BME280;8151;47.824;12.092;2023-08-07T12:50:13;96362.22;;;18.38;57.80
16094;BME280;8151;47.824;12.092;2023-08-07T12:52:41;96349.00;;;18.43;57.42
16094;BME280;8151;47.824;12.092;2023-08-07T12:55:11;96345.06;;;18.45;56.84
16094;BME280;8151;47.824;12.092;2023-08-07T12:57:44;96349.94;;;18.55;56.74
16094;BME280;8151;47.824;12.092;2023-08-07T13:00:13;96349.19;;;18.73;56.32
16094;BME280;8151;47.824;12.092;2023-08-07T13:02:43;96340.47;;;18.84;55.93
16094;BME280;8151;47.824;12.092;2023-08-07T13:05:12;96357.66;;;18.95;55.71
16094;BME280;8151;47.824;12.092;2023-08-07T13:07:41;96344.84;;;18.97;55.08
16094;BME280;8151;47.824;12.092;2023-08-07T13:10:13;96360.03;;;19.03;54.70
16094;BME280;8151;47.824;12.092;2023-08-07T13:12:51;96354.03;;;19.08;54.36